createdAt,value
2023-09-30T00:02:07.379Z,13.46
2023-09-30T00:04:35.638Z,13.45
2023-09-30T00:07:03.560Z,13.46
2023-09-30T00:09:30.960Z,13.47
2023-09-30T00:11:58.327Z,13.46
2023-09-30T00:14:25.370Z,13.44
2023-09-30T00:16:52.619Z,13.45
2023-09-30T00:19:19.819Z,13.43
2023-09-30T00:21:46.896Z,13.43
2023-09-30T00:24:13.977Z,13.41
2023-09-30T00:26:41.068Z,13.43
2023-09-30T00:29:08.774Z,13.41
2023-09-30T00:31:35.846Z,13.40
2023-09-30T00:34:03.250Z,13.38
2023-09-30T00:36:30.406Z,13.39
2023-09-30T00:38:57.774Z,13.39
2023-09-30T00:41:25.625Z,13.36
2023-09-30T00:43:53.084Z,13.36
2023-09-30T00:46:28.809Z,13.37
2023-09-30T00:48:58.260Z,13.37
2023-09-30T00:51:25.785Z,13.34
2023-09-30T00:53:54.277Z,13.36
2023-09-30T00:56:24.523Z,13.36
2023-09-30T00:58:52.567Z,13.33
2023-09-30T01:01:21.343Z,13.35
2023-09-30T01:03:49.176Z,13.33
2023-09-30T01:06:16.544Z,13.33
2023-09-30T01:08:43.947Z,13.33
2023-09-30T01:11:11.494Z,13.31
2023-09-30T01:13:39.183Z,13.31
2023-09-30T01:16:07.250Z,13.31
2023-09-30T01:18:34.657Z,13.33
2023-09-30T01:21:05.191Z,13.27
2023-09-30T01:23:32.867Z,13.27
2023-09-30T01:26:05.179Z,13.25
2023-09-30T01:28:32.816Z,13.26
2023-09-30T01:31:03.528Z,13.25
2023-09-30T01:33:31.205Z,13.21
2023-09-30T01:35:58.484Z,13.22
2023-09-30T01:38:25.702Z,13.21
2023-09-30T01:40:53.242Z,13.19
2023-09-30T01:43:20.501Z,13.19
2023-09-30T01:45:47.668Z,13.19
2023-09-30T01:48:15.540Z,13.18
2023-09-30T01:50:42.708Z,13.20
2023-09-30T01:53:10.633Z,13.18
2023-09-30T01:55:38.195Z,13.17
2023-09-30T01:58:06.090Z,13.19
2023-09-30T02:00:33.750Z,13.17
2023-09-30T02:03:01.646Z,13.16
2023-09-30T02:05:28.902Z,13.16
2023-09-30T02:07:57.467Z,13.17
2023-09-30T02:10:24.579Z,13.14
2023-09-30T02:12:52.125Z,13.14
2023-09-30T02:15:19.487Z,13.12
2023-09-30T02:17:47.351Z,13.11
2023-09-30T02:20:20.180Z,13.11
2023-09-30T02:22:48.911Z,13.09
2023-09-30T02:25:16.387Z,13.09
2023-09-30T02:27:44.143Z,13.07
2023-09-30T02:30:12.935Z,13.06
2023-09-30T02:32:41.755Z,13.08
2023-09-30T02:35:13.408Z,13.08
2023-09-30T02:37:41.471Z,13.07
2023-09-30T02:40:12.259Z,13.04
2023-09-30T02:42:40.936Z,13.02
2023-09-30T02:45:10.552Z,12.99
2023-09-30T02:47:38.952Z,12.97
2023-09-30T02:50:09.652Z,12.99
2023-09-30T02:52:37.692Z,12.97
2023-09-30T02:55:05.057Z,13.00
2023-09-30T02:57:33.001Z,12.99
2023-09-30T03:00:13.176Z,13.00
2023-09-30T03:02:40.438Z,12.95
2023-09-30T03:05:08.303Z,12.95
2023-09-30T03:07:35.347Z,13.00
2023-09-30T03:10:06.439Z,12.99
2023-09-30T03:12:33.462Z,13.00
2023-09-30T03:15:00.655Z,12.96
2023-09-30T03:17:27.852Z,12.97
2023-09-30T03:19:55.245Z,12.94
2023-09-30T03:22:22.308Z,12.94
2023-09-30T03:24:49.705Z,12.90
2023-09-30T03:27:17.240Z,12.89
2023-09-30T03:29:44.303Z,12.88
2023-09-30T03:32:11.976Z,12.90
2023-09-30T03:34:39.059Z,12.91
2023-09-30T03:37:08.051Z,12.89
2023-09-30T03:39:35.369Z,12.88
2023-09-30T03:42:04.439Z,12.85
2023-09-30T03:44:31.524Z,12.84
2023-09-30T03:47:00.775Z,12.82
2023-09-30T03:49:29.758Z,12.85
2023-09-30T03:51:56.888Z,12.89
2023-09-30T03:54:24.290Z,12.82
2023-09-30T03:56:51.465Z,12.84
2023-09-30T03:59:20.006Z,12.84
2023-09-30T04:01:48.561Z,12.80
2023-09-30T04:04:15.767Z,12.79
2023-09-30T04:06:43.895Z,12.78
2023-09-30T04:09:11.468Z,12.78
2023-09-30T04:11:39.229Z,12.78
2023-09-30T04:14:10.105Z,12.77
2023-09-30T04:16:38.977Z,12.81
2023-09-30T04:19:08.597Z,12.84
2023-09-30T04:21:36.053Z,12.82
2023-09-30T04:24:05.367Z,12.88
2023-09-30T04:26:32.605Z,12.88
2023-09-30T04:28:59.809Z,12.84
2023-09-30T04:31:26.946Z,12.86
2023-09-30T04:33:54.373Z,12.80
2023-09-30T04:36:23.156Z,12.75
2023-09-30T04:38:50.190Z,12.76
2023-09-30T04:41:17.306Z,12.75
2023-09-30T04:43:44.861Z,12.73
2023-09-30T04:46:14.261Z,12.74
2023-09-30T04:48:42.575Z,12.75
2023-09-30T04:51:10.801Z,12.72
2023-09-30T04:53:38.938Z,12.72
2023-09-30T04:56:06.184Z,12.73
2023-09-30T04:58:33.324Z,12.74
2023-09-30T05:01:00.412Z,12.76
2023-09-30T05:03:27.870Z,12.74
2023-09-30T05:05:57.081Z,12.73
2023-09-30T05:08:25.607Z,12.73
2023-09-30T05:10:56.713Z,12.74
2023-09-30T05:13:24.709Z,12.77
2023-09-30T05:15:53.245Z,12.74
2023-09-30T05:18:20.596Z,12.75
2023-09-30T05:20:47.835Z,12.74
2023-09-30T05:23:15.926Z,12.74
2023-09-30T05:25:44.175Z,12.74
2023-09-30T05:28:12.988Z,12.73
2023-09-30T05:30:40.844Z,12.74
2023-09-30T05:33:08.237Z,12.73
2023-09-30T05:35:35.479Z,12.75
2023-09-30T05:38:02.659Z,12.74
2023-09-30T05:40:31.886Z,12.72
2023-09-30T05:43:00.460Z,12.72
2023-09-30T05:45:29.283Z,12.73
2023-09-30T05:47:58.516Z,12.73
2023-09-30T05:50:28.051Z,12.76
2023-09-30T05:52:56.948Z,12.74
2023-09-30T05:55:26.903Z,12.72
2023-09-30T05:57:56.005Z,12.71
2023-09-30T06:00:24.157Z,12.72
2023-09-30T06:02:52.848Z,12.71
2023-09-30T06:05:20.630Z,12.71
2023-09-30T06:07:48.066Z,12.70
2023-09-30T06:10:20.051Z,12.72
2023-09-30T06:12:48.851Z,12.75
2023-09-30T06:15:17.265Z,12.75
2023-09-30T06:17:45.127Z,12.72
2023-09-30T06:20:19.204Z,12.73
2023-09-30T06:22:47.215Z,12.72
2023-09-30T06:25:17.713Z,12.70
2023-09-30T06:27:46.224Z,12.69
2023-09-30T06:30:14.728Z,12.64
2023-09-30T06:32:42.060Z,12.70
2023-09-30T06:35:11.656Z,12.71
2023-09-30T06:37:42.761Z,12.67
2023-09-30T06:40:13.893Z,12.65
2023-09-30T06:42:41.548Z,12.66
2023-09-30T06:45:11.400Z,12.67
2023-09-30T06:47:40.774Z,12.73
2023-09-30T06:50:13.924Z,12.72
2023-09-30T06:52:43.038Z,12.72
2023-09-30T06:55:10.768Z,12.71
2023-09-30T06:57:39.335Z,12.66
2023-09-30T07:00:14.503Z,12.62
2023-09-30T07:02:42.877Z,12.67
2023-09-30T07:05:15.028Z,12.60
2023-09-30T07:07:46.629Z,12.62
2023-09-30T07:10:14.396Z,12.62
2023-09-30T07:12:41.673Z,12.61
2023-09-30T07:15:09.910Z,12.60
2023-09-30T07:17:38.103Z,12.64
2023-09-30T07:20:06.917Z,12.59
2023-09-30T07:22:45.926Z,12.64
2023-09-30T07:25:18.444Z,12.63
2023-09-30T07:27:46.582Z,12.60
2023-09-30T07:30:16.388Z,12.61
2023-09-30T07:32:45.092Z,12.61
2023-09-30T07:35:15.425Z,12.59
2023-09-30T07:37:43.445Z,12.63
2023-09-30T07:40:12.916Z,12.64
2023-09-30T07:42:40.524Z,12.58
2023-09-30T07:45:08.278Z,12.63
2023-09-30T07:47:35.739Z,12.60
2023-09-30T07:50:11.756Z,12.62
2023-09-30T07:52:43.711Z,12.61
2023-09-30T07:55:11.283Z,12.61
2023-09-30T07:57:39.722Z,12.61
2023-09-30T08:00:10.595Z,12.58
2023-09-30T08:02:38.541Z,12.57
2023-09-30T08:05:07.427Z,12.58
2023-09-30T08:07:35.343Z,12.57
2023-09-30T08:10:06.541Z,12.62
2023-09-30T08:12:34.525Z,12.59
2023-09-30T08:15:04.576Z,12.55
2023-09-30T08:17:32.385Z,12.51
2023-09-30T08:19:59.466Z,12.59
2023-09-30T08:22:29.521Z,12.61
2023-09-30T08:24:57.040Z,12.61
2023-09-30T08:27:25.770Z,12.58
2023-09-30T08:29:53.027Z,12.57
2023-09-30T08:32:20.358Z,12.57
2023-09-30T08:34:47.460Z,12.59
2023-09-30T08:37:14.669Z,12.60
2023-09-30T08:39:42.048Z,12.61
2023-09-30T08:42:12.652Z,12.61
2023-09-30T08:44:43.117Z,12.61
2023-09-30T08:47:12.474Z,12.63
2023-09-30T08:49:43.042Z,12.58
2023-09-30T08:52:12.026Z,12.59
2023-09-30T08:54:40.070Z,12.62
2023-09-30T08:57:10.737Z,12.65
2023-09-30T08:59:41.999Z,12.64
2023-09-30T09:02:11.044Z,12.59
2023-09-30T09:04:38.978Z,12.61
2023-09-30T09:07:06.805Z,12.65
2023-09-30T09:09:34.094Z,12.63
2023-09-30T09:12:01.427Z,12.60
2023-09-30T09:14:41.463Z,12.63
2023-09-30T09:17:09.620Z,12.63
2023-09-30T09:19:36.725Z,12.64
2023-09-30T09:22:08.395Z,12.70
2023-09-30T09:24:40.432Z,12.64
2023-09-30T09:27:09.722Z,12.65
2023-09-30T09:29:40.480Z,12.66
2023-09-30T09:32:11.815Z,12.66
2023-09-30T09:34:40.332Z,12.69
2023-09-30T09:37:23.708Z,12.69
2023-09-30T09:39:52.109Z,12.72
2023-09-30T09:42:30.981Z,12.71
2023-09-30T09:45:01.247Z,12.70
2023-09-30T09:47:30.410Z,12.76
2023-09-30T09:49:59.399Z,12.76
2023-09-30T09:52:26.528Z,12.75
2023-09-30T09:54:53.765Z,12.75
2023-09-30T09:57:21.422Z,12.79
2023-09-30T09:59:48.822Z,12.75
2023-09-30T10:02:19.089Z,12.75
2023-09-30T10:04:47.374Z,12.75
2023-09-30T10:07:29.527Z,12.77
2023-09-30T10:10:00.012Z,12.81
2023-09-30T10:12:28.198Z,12.78
2023-09-30T10:14:55.444Z,12.77
2023-09-30T10:18:15.241Z,12.80
2023-09-30T10:20:50.293Z,12.80
2023-09-30T10:23:25.721Z,12.81
2023-09-30T10:25:59.251Z,12.80
2023-09-30T10:28:42.038Z,12.80
2023-09-30T10:31:26.334Z,12.82
2023-09-30T10:34:03.189Z,12.81
2023-09-30T10:36:35.080Z,12.81
2023-09-30T10:39:04.079Z,12.82
2023-09-30T10:41:40.238Z,12.84
2023-09-30T10:44:30.961Z,12.85
2023-09-30T10:47:22.548Z,12.86
2023-09-30T10:49:49.941Z,12.89
2023-09-30T10:52:27.082Z,12.91
2023-09-30T10:54:54.770Z,12.91
2023-09-30T10:57:32.078Z,12.93
2023-09-30T11:00:12.905Z,12.99
2023-09-30T11:02:50.841Z,12.95
2023-09-30T11:05:19.456Z,13.00
2023-09-30T11:07:52.218Z,12.99
2023-09-30T11:10:20.015Z,13.01
2023-09-30T11:13:00.427Z,12.97
2023-09-30T11:15:29.104Z,13.01
2023-09-30T11:18:15.626Z,13.02
2023-09-30T11:20:44.049Z,13.04
2023-09-30T11:23:15.631Z,13.03
2023-09-30T11:25:42.874Z,13.03
2023-09-30T11:28:20.387Z,13.02
2023-09-30T11:31:01.645Z,13.03
2023-09-30T11:33:30.272Z,13.04
2023-09-30T11:36:03.435Z,13.04
2023-09-30T11:38:31.621Z,13.04
2023-09-30T11:41:03.489Z,13.04
2023-09-30T11:43:32.162Z,13.07
2023-09-30T11:46:07.161Z,13.05
2023-09-30T11:48:34.452Z,13.06
2023-09-30T11:51:03.386Z,13.07
2023-09-30T11:53:31.742Z,13.09
2023-09-30T11:56:00.068Z,13.06
2023-09-30T11:58:28.252Z,13.07
2023-09-30T12:00:56.262Z,13.07
2023-09-30T12:03:23.463Z,13.08
2023-09-30T12:05:50.579Z,13.09
2023-09-30T12:08:18.432Z,13.10
2023-09-30T12:10:46.316Z,13.08
2023-09-30T12:13:16.738Z,13.09
2023-09-30T12:15:45.711Z,13.10
2023-09-30T12:18:14.824Z,13.10
2023-09-30T12:20:42.576Z,13.11
2023-09-30T12:23:09.878Z,13.14
2023-09-30T12:25:38.535Z,13.15
2023-09-30T12:28:06.717Z,13.15
2023-09-30T12:30:34.595Z,13.17
2023-09-30T12:33:02.315Z,13.14
2023-09-30T12:35:29.536Z,13.14
2023-09-30T12:37:56.537Z,13.17
2023-09-30T12:40:24.499Z,13.16
2023-09-30T12:42:51.696Z,13.17
2023-09-30T12:45:19.407Z,13.22
2023-09-30T12:47:48.598Z,13.22
2023-09-30T12:50:15.917Z,13.21
2023-09-30T12:52:43.048Z,13.22
2023-09-30T12:55:10.651Z,13.25
2023-09-30T12:57:38.103Z,13.26
2023-09-30T13:00:10.388Z,13.23
2023-09-30T13:02:38.019Z,13.24
2023-09-30T13:05:08.136Z,13.25
2023-09-30T13:07:35.397Z,13.26
2023-09-30T13:10:02.603Z,13.30
2023-09-30T13:12:30.441Z,13.29
2023-09-30T13:14:57.850Z,13.30
2023-09-30T13:17:25.095Z,13.29
2023-09-30T13:19:52.680Z,13.27
2023-09-30T13:22:20.043Z,13.29
2023-09-30T13:24:47.457Z,13.33
2023-09-30T13:27:17.107Z,13.34
2023-09-30T13:29:45.526Z,13.33
2023-09-30T13:32:13.283Z,13.33
2023-09-30T13:34:41.104Z,13.34
2023-09-30T13:37:08.474Z,13.34
2023-09-30T13:39:36.148Z,13.33
2023-09-30T13:42:03.712Z,13.34
2023-09-30T13:44:30.880Z,13.31
2023-09-30T13:46:57.940Z,13.33
2023-09-30T13:49:25.152Z,13.32
2023-09-30T13:51:52.236Z,13.31
2023-09-30T13:54:19.345Z,13.31
2023-09-30T13:56:46.478Z,13.30
2023-09-30T13:59:13.609Z,13.30
2023-09-30T14:01:42.836Z,13.31
2023-09-30T14:04:11.150Z,13.32
2023-09-30T14:06:39.189Z,13.31
2023-09-30T14:09:06.653Z,13.31
2023-09-30T14:11:33.840Z,13.31
2023-09-30T14:14:01.888Z,13.31
2023-09-30T14:16:29.239Z,13.30
2023-09-30T14:18:56.602Z,13.31
2023-09-30T14:21:23.970Z,13.31
2023-09-30T14:23:51.193Z,13.29
2023-09-30T14:26:18.313Z,13.30
2023-09-30T14:28:46.185Z,13.31
2023-09-30T14:31:13.507Z,13.29
2023-09-30T14:33:41.026Z,13.31
2023-09-30T14:36:08.273Z,13.32
2023-09-30T14:38:35.428Z,13.30
2023-09-30T14:41:02.562Z,13.30
2023-09-30T14:43:29.772Z,13.30
2023-09-30T14:45:56.942Z,13.33
2023-09-30T14:48:24.179Z,13.30
2023-09-30T14:50:54.218Z,13.31
2023-09-30T14:53:21.469Z,13.31
2023-09-30T14:55:48.612Z,13.33
2023-09-30T14:58:15.872Z,13.30
2023-09-30T15:00:43.390Z,13.30
2023-09-30T15:03:12.363Z,13.31
2023-09-30T15:05:39.705Z,13.33
2023-09-30T15:08:06.949Z,13.31
2023-09-30T15:10:37.230Z,13.31
2023-09-30T15:13:06.530Z,13.31
2023-09-30T15:15:38.115Z,13.32
2023-09-30T15:18:05.951Z,13.33
2023-09-30T15:20:40.324Z,13.31
2023-09-30T15:23:07.662Z,13.32
2023-09-30T15:25:34.734Z,13.30
2023-09-30T15:28:01.919Z,13.32
2023-09-30T15:30:29.099Z,13.34
2023-09-30T15:32:56.318Z,13.30
2023-09-30T15:35:23.420Z,13.30
2023-09-30T15:37:50.935Z,13.33
2023-09-30T15:40:18.579Z,13.34
2023-09-30T15:42:47.368Z,13.34
2023-09-30T15:45:14.437Z,13.34
2023-09-30T15:47:41.726Z,13.32
2023-09-30T15:50:09.324Z,13.35
2023-09-30T15:52:36.700Z,13.33
2023-09-30T15:55:04.543Z,13.33
2023-09-30T15:57:31.720Z,13.34
2023-09-30T15:59:58.917Z,13.33
2023-09-30T16:02:26.015Z,13.34
2023-09-30T16:04:53.141Z,13.34
2023-09-30T16:07:20.582Z,13.34
2023-09-30T16:09:47.963Z,13.33
2023-09-30T16:12:15.026Z,13.36
2023-09-30T16:14:42.123Z,13.35
2023-09-30T16:17:09.295Z,13.33
2023-09-30T16:19:36.656Z,13.33
2023-09-30T16:22:03.885Z,13.31
2023-09-30T16:24:30.886Z,13.30
2023-09-30T16:26:58.438Z,13.32
2023-09-30T16:29:25.551Z,13.33
2023-09-30T16:31:53.507Z,13.33
2023-09-30T16:34:20.507Z,13.32
2023-09-30T16:36:47.727Z,13.31
2023-09-30T16:39:16.149Z,13.31
2023-09-30T16:41:43.239Z,13.33
2023-09-30T16:44:10.362Z,13.34
2023-09-30T16:46:37.795Z,13.33
2023-09-30T16:49:05.231Z,13.30
2023-09-30T16:51:32.435Z,13.29
2023-09-30T16:53:59.906Z,13.29
2023-09-30T16:56:27.314Z,13.27
2023-09-30T16:58:56.144Z,13.26
2023-09-30T17:01:23.793Z,13.26
2023-09-30T17:03:50.932Z,13.25
2023-09-30T17:06:18.224Z,13.25
2023-09-30T17:08:45.299Z,13.26
2023-09-30T17:11:12.657Z,13.30
2023-09-30T17:13:39.932Z,13.30
2023-09-30T17:16:07.612Z,13.33
2023-09-30T17:18:35.108Z,13.31
2023-09-30T17:21:02.845Z,13.30
2023-09-30T17:23:29.846Z,13.29
2023-09-30T17:26:02.364Z,13.29
2023-09-30T17:28:29.789Z,13.29
2023-09-30T17:30:58.187Z,13.30
2023-09-30T17:33:26.047Z,13.29
2023-09-30T17:36:00.650Z,13.29
2023-09-30T17:38:29.663Z,13.26
2023-09-30T17:41:06.173Z,13.24
2023-09-30T17:43:38.975Z,13.24
2023-09-30T17:46:11.472Z,13.26
2023-09-30T17:48:39.671Z,13.24
2023-09-30T17:51:09.866Z,13.25
2023-09-30T17:53:37.052Z,13.24
2023-09-30T17:56:04.422Z,13.23
2023-09-30T17:58:31.972Z,13.23
2023-09-30T18:00:59.537Z,13.24
2023-09-30T18:03:26.666Z,13.23
2023-09-30T18:05:54.838Z,13.21
2023-09-30T18:08:27.376Z,13.22
2023-09-30T18:10:57.706Z,13.21
2023-09-30T18:13:24.797Z,13.26
2023-09-30T18:15:52.195Z,13.22
2023-09-30T18:18:19.581Z,13.22
2023-09-30T18:20:48.480Z,13.21
2023-09-30T18:23:16.237Z,13.21
2023-09-30T18:25:45.477Z,13.21
2023-09-30T18:28:12.763Z,13.20
2023-09-30T18:30:43.802Z,13.22
2023-09-30T18:33:15.219Z,13.21
2023-09-30T18:35:44.256Z,13.20
2023-09-30T18:38:11.906Z,13.20
2023-09-30T18:40:39.163Z,13.19
2023-09-30T18:43:14.171Z,13.19
2023-09-30T18:45:42.119Z,13.19
2023-09-30T18:48:11.629Z,13.19
2023-09-30T18:50:45.787Z,13.19
2023-09-30T18:53:14.149Z,13.19
2023-09-30T18:55:44.659Z,13.18
2023-09-30T18:58:12.113Z,13.19
2023-09-30T19:00:40.969Z,13.19
2023-09-30T19:03:08.579Z,13.20
2023-09-30T19:05:37.533Z,13.21
2023-09-30T19:08:06.185Z,13.19
2023-09-30T19:10:38.168Z,13.21
2023-09-30T19:13:05.935Z,13.20
2023-09-30T19:15:33.296Z,13.21
2023-09-30T19:18:01.044Z,13.21
2023-09-30T19:20:28.284Z,13.21
2023-09-30T19:22:58.270Z,13.20
2023-09-30T19:25:25.609Z,13.22
2023-09-30T19:27:52.765Z,13.22
2023-09-30T19:30:20.577Z,13.21
2023-09-30T19:32:47.674Z,13.22
2023-09-30T19:35:15.916Z,13.23
2023-09-30T19:37:43.270Z,13.21
2023-09-30T19:40:12.884Z,13.24
2023-09-30T19:42:40.824Z,13.23
2023-09-30T19:45:08.688Z,13.22
2023-09-30T19:47:35.803Z,13.22
2023-09-30T19:50:05.831Z,13.22
2023-09-30T19:52:33.103Z,13.22
2023-09-30T19:55:00.389Z,13.21
2023-09-30T19:57:30.350Z,13.23
2023-09-30T19:59:57.670Z,13.22
2023-09-30T20:02:24.805Z,13.21
2023-09-30T20:04:52.196Z,13.21
2023-09-30T20:07:19.510Z,13.23
2023-09-30T20:09:46.697Z,13.23
2023-09-30T20:12:14.235Z,13.22
2023-09-30T20:14:45.488Z,13.24
2023-09-30T20:17:16.899Z,13.24
2023-09-30T20:19:44.052Z,13.25
2023-09-30T20:22:11.355Z,13.25
2023-09-30T20:24:39.390Z,13.25
2023-09-30T20:27:06.957Z,13.26
2023-09-30T20:29:34.228Z,13.25
2023-09-30T20:32:01.232Z,13.24
2023-09-30T20:34:29.601Z,13.26
2023-09-30T20:36:56.789Z,13.26
2023-09-30T20:39:23.953Z,13.24
2023-09-30T20:41:51.845Z,13.25
2023-09-30T20:44:19.426Z,13.26
2023-09-30T20:46:48.856Z,13.25
2023-09-30T20:49:19.514Z,13.26
2023-09-30T20:51:47.428Z,13.29
2023-09-30T20:54:14.738Z,13.27
2023-09-30T20:56:42.856Z,13.29
2023-09-30T20:59:12.116Z,13.29
2023-09-30T21:01:39.934Z,13.32
2023-09-30T21:04:07.787Z,13.30
2023-09-30T21:06:35.245Z,13.32
2023-09-30T21:09:02.352Z,13.30
2023-09-30T21:11:29.488Z,13.31
2023-09-30T21:13:56.505Z,13.30
2023-09-30T21:16:23.639Z,13.31
2023-09-30T21:18:51.345Z,13.32
2023-09-30T21:21:20.121Z,13.31
2023-09-30T21:23:47.101Z,13.34
2023-09-30T21:26:15.332Z,13.33
2023-09-30T21:28:46.300Z,13.33
2023-09-30T21:31:21.715Z,13.33
2023-09-30T21:33:49.680Z,13.33
2023-09-30T21:36:18.257Z,13.34
2023-09-30T21:38:46.886Z,13.36
2023-09-30T21:41:14.830Z,13.35
2023-09-30T21:43:42.832Z,13.35
2023-09-30T21:46:12.414Z,13.34
2023-09-30T21:48:40.755Z,13.34
2023-09-30T21:51:08.426Z,13.33
2023-09-30T21:53:35.909Z,13.33
2023-09-30T21:56:04.141Z,13.35
2023-09-30T21:58:32.886Z,13.34
2023-09-30T22:01:00.544Z,13.37
2023-09-30T22:03:29.352Z,13.34
2023-09-30T22:05:57.572Z,13.35
2023-09-30T22:08:26.238Z,13.34
2023-09-30T22:10:55.332Z,13.36
2023-09-30T22:13:23.909Z,13.37
2023-09-30T22:15:52.060Z,13.34
2023-09-30T22:18:20.456Z,13.34
2023-09-30T22:20:48.130Z,13.36
2023-09-30T22:23:15.235Z,13.36
2023-09-30T22:25:43.039Z,13.39
2023-09-30T22:28:10.746Z,13.39
2023-09-30T22:30:38.703Z,13.37
2023-09-30T22:33:07.253Z,13.37
2023-09-30T22:35:34.762Z,13.38
2023-09-30T22:38:02.664Z,13.40
2023-09-30T22:40:29.798Z,13.36
2023-09-30T22:43:00.473Z,13.34
2023-09-30T22:45:29.965Z,13.37
2023-09-30T22:47:57.052Z,13.36
2023-09-30T22:50:24.220Z,13.33
2023-09-30T22:52:51.804Z,13.37
2023-09-30T22:55:21.287Z,13.34
2023-09-30T22:57:51.095Z,13.34
2023-09-30T23:00:21.127Z,13.35
2023-09-30T23:02:49.161Z,13.36
2023-09-30T23:05:18.996Z,13.36
2023-09-30T23:07:46.906Z,13.37
2023-09-30T23:10:16.297Z,13.35
2023-09-30T23:12:44.195Z,13.35
2023-09-30T23:15:15.070Z,13.35
2023-09-30T23:17:45.145Z,13.35
2023-09-30T23:20:17.733Z,13.36
2023-09-30T23:22:48.829Z,13.35
2023-09-30T23:25:20.882Z,13.36
2023-09-30T23:27:48.741Z,13.35
2023-09-30T23:30:16.068Z,13.35
2023-09-30T23:32:49.663Z,13.33
2023-09-30T23:35:22.346Z,13.32
2023-09-30T23:37:52.546Z,13.31
2023-09-30T23:40:23.950Z,13.31
2023-09-30T23:42:55.020Z,13.32
2023-09-30T23:45:23.362Z,13.31
2023-09-30T23:47:53.234Z,13.32
2023-09-30T23:50:21.102Z,13.32
2023-09-30T23:52:52.199Z,13.34
2023-09-30T23:55:23.621Z,13.35
2023-09-30T23:57:51.072Z,13.32
